createdAt,value
2023-02-25T00:00:31.331Z,21.93
2023-02-25T00:02:59.208Z,19.37
2023-02-25T00:05:26.742Z,22.93
2023-02-25T00:07:54.096Z,19.07
2023-02-25T00:10:20.923Z,17.43
2023-02-25T00:12:47.767Z,19.20
2023-02-25T00:15:14.622Z,17.63
2023-02-25T00:17:41.431Z,18.83
2023-02-25T00:20:09.968Z,22.07
2023-02-25T00:22:36.750Z,22.07
2023-02-25T00:25:03.662Z,20.07
2023-02-25T00:27:30.490Z,19.03
2023-02-25T00:29:57.379Z,18.97
2023-02-25T00:32:24.302Z,20.50
2023-02-25T00:34:52.201Z,23.40
2023-02-25T00:37:19.183Z,30.00
2023-02-25T00:39:46.295Z,35.87
2023-02-25T00:42:14.633Z,32.63
2023-02-25T00:44:46.468Z,24.10
2023-02-25T00:47:14.512Z,26.40
2023-02-25T00:49:42.056Z,24.57
2023-02-25T00:52:09.219Z,19.83
2023-02-25T00:54:37.109Z,24.07
2023-02-25T00:57:04.221Z,23.57
2023-02-25T00:59:31.481Z,19.87
2023-02-25T01:01:59.010Z,20.73
2023-02-25T01:04:26.386Z,17.13
2023-02-25T01:06:54.765Z,18.70
2023-02-25T01:09:22.198Z,20.57
2023-02-25T01:11:49.966Z,21.27
2023-02-25T01:14:21.354Z,22.57
2023-02-25T01:16:49.183Z,19.70
2023-02-25T01:19:21.393Z,19.13
2023-02-25T01:21:50.077Z,24.90
2023-02-25T01:24:19.211Z,18.13
2023-02-25T01:26:47.427Z,17.23
2023-02-25T01:29:17.515Z,17.93
2023-02-25T01:31:44.915Z,20.13
2023-02-25T01:34:16.230Z,15.50
2023-02-25T01:36:43.401Z,18.23
2023-02-25T01:39:10.683Z,20.73
2023-02-25T01:41:37.829Z,20.27
2023-02-25T01:44:10.938Z,18.20
2023-02-25T01:46:38.675Z,19.77
2023-02-25T01:49:15.337Z,21.50
2023-02-25T01:51:43.855Z,17.60
2023-02-25T01:54:11.182Z,20.13
2023-02-25T01:56:40.493Z,21.57
2023-02-25T01:59:08.324Z,19.13
2023-02-25T02:01:36.780Z,19.20
2023-02-25T02:04:05.802Z,19.30
2023-02-25T02:06:43.487Z,19.57
2023-02-25T02:09:13.488Z,20.07
2023-02-25T02:11:40.768Z,17.63
2023-02-25T02:14:09.045Z,17.70
2023-02-25T02:16:54.712Z,21.03
2023-02-25T02:19:28.065Z,25.13
2023-02-25T02:21:55.003Z,23.53
2023-02-25T02:24:21.793Z,20.10
2023-02-25T02:27:00.555Z,21.37
2023-02-25T02:29:45.452Z,18.60
2023-02-25T02:32:12.435Z,18.17
2023-02-25T02:34:39.336Z,20.00
2023-02-25T02:37:06.207Z,19.07
2023-02-25T02:39:47.693Z,17.43
2023-02-25T02:42:21.441Z,19.70
2023-02-25T02:45:10.826Z,19.33
2023-02-25T02:47:42.744Z,22.63
2023-02-25T02:50:23.982Z,16.33
2023-02-25T02:52:52.360Z,14.83
2023-02-25T02:55:22.499Z,16.83
2023-02-25T02:57:54.632Z,16.27
2023-02-25T03:00:26.615Z,15.97
2023-02-25T03:02:59.340Z,15.67
2023-02-25T03:05:28.333Z,17.00
2023-02-25T03:08:18.785Z,17.90
2023-02-25T03:10:47.091Z,14.90
2023-02-25T03:13:15.163Z,15.60
2023-02-25T03:15:42.839Z,14.43
2023-02-25T03:18:17.214Z,14.40
2023-02-25T03:20:47.249Z,13.23
2023-02-25T03:23:15.906Z,11.57
2023-02-25T03:25:48.675Z,15.20
2023-02-25T03:28:23.773Z,13.07
2023-02-25T03:31:03.009Z,11.03
2023-02-25T03:33:29.966Z,10.67
2023-02-25T03:35:57.921Z,13.50
2023-02-25T03:38:26.830Z,11.13
2023-02-25T03:40:55.739Z,10.47
2023-02-25T03:43:25.933Z,11.83
2023-02-25T03:45:53.288Z,8.70
2023-02-25T03:48:22.879Z,9.60
2023-02-25T03:50:59.485Z,10.50
2023-02-25T03:53:27.592Z,9.40
2023-02-25T03:56:14.777Z,9.07
2023-02-25T03:58:43.970Z,10.17
2023-02-25T04:01:19.705Z,9.60
2023-02-25T04:03:46.645Z,9.90
2023-02-25T04:06:14.714Z,10.67
2023-02-25T04:08:41.843Z,10.07
2023-02-25T04:11:08.734Z,11.27
2023-02-25T04:13:35.854Z,12.03
2023-02-25T04:16:02.734Z,11.67
2023-02-25T04:18:30.447Z,12.87
2023-02-25T04:20:57.331Z,11.83
2023-02-25T04:23:24.133Z,11.30
2023-02-25T04:25:51.111Z,12.53
2023-02-25T04:28:18.014Z,10.23
2023-02-25T04:30:44.960Z,11.90
2023-02-25T04:33:12.178Z,10.10
2023-02-25T04:35:39.419Z,10.63
2023-02-25T04:38:08.973Z,8.60
2023-02-25T04:40:36.319Z,9.00
2023-02-25T04:43:03.370Z,7.93
2023-02-25T04:45:30.235Z,8.40
2023-02-25T04:47:59.575Z,10.13
2023-02-25T04:50:26.675Z,10.90
2023-02-25T04:52:53.500Z,9.53
2023-02-25T04:55:20.353Z,13.17
2023-02-25T04:57:47.143Z,9.10
2023-02-25T05:00:19.332Z,9.20
2023-02-25T05:02:49.434Z,9.00
2023-02-25T05:05:17.011Z,9.10
2023-02-25T05:07:43.944Z,8.70
2023-02-25T05:10:12.072Z,12.27
2023-02-25T05:12:38.840Z,10.03
2023-02-25T05:15:06.021Z,11.47
2023-02-25T05:17:33.129Z,10.20
2023-02-25T05:20:00.193Z,7.70
2023-02-25T05:22:27.722Z,7.97
2023-02-25T05:24:54.712Z,10.00
2023-02-25T05:27:21.475Z,9.40
2023-02-25T05:29:48.290Z,10.00
2023-02-25T05:32:15.321Z,9.50
2023-02-25T05:34:42.178Z,8.83
2023-02-25T05:37:08.957Z,8.27
2023-02-25T05:39:35.856Z,7.90
2023-02-25T05:42:02.602Z,8.07
2023-02-25T05:44:29.488Z,6.77
2023-02-25T05:46:57.846Z,7.37
2023-02-25T05:49:24.771Z,7.00
2023-02-25T05:51:51.562Z,8.00
2023-02-25T05:54:18.491Z,6.53
2023-02-25T05:56:45.288Z,6.50
2023-02-25T05:59:12.645Z,7.63
2023-02-25T06:01:39.537Z,8.07
2023-02-25T06:04:06.707Z,30.80
2023-02-25T06:06:33.579Z,8.83
2023-02-25T06:09:00.406Z,6.30
2023-02-25T06:11:28.219Z,5.53
2023-02-25T06:13:56.142Z,16.37
2023-02-25T06:16:25.971Z,7.27
2023-02-25T06:18:53.549Z,5.67
2023-02-25T06:21:20.378Z,4.80
2023-02-25T06:23:50.459Z,3.97
2023-02-25T06:26:18.302Z,6.87
2023-02-25T06:28:45.152Z,5.63
2023-02-25T06:31:14.072Z,8.33
2023-02-25T06:33:41.754Z,5.47
2023-02-25T06:36:08.890Z,2.83
2023-02-25T06:38:36.172Z,5.43
2023-02-25T06:41:07.302Z,5.60
2023-02-25T06:43:34.320Z,6.13
2023-02-25T06:46:04.307Z,5.57
2023-02-25T06:48:31.272Z,5.77
2023-02-25T06:50:58.090Z,4.87
2023-02-25T06:53:24.928Z,5.27
2023-02-25T06:55:51.722Z,3.93
2023-02-25T06:58:18.634Z,5.27
2023-02-25T07:00:45.402Z,4.63
2023-02-25T07:03:15.499Z,7.43
2023-02-25T07:05:42.406Z,12.53
2023-02-25T07:08:09.273Z,12.77
2023-02-25T07:10:36.158Z,9.10
2023-02-25T07:13:02.979Z,9.43
2023-02-25T07:15:29.768Z,15.67
2023-02-25T07:17:56.760Z,9.50
2023-02-25T07:20:23.567Z,12.57
2023-02-25T07:22:50.881Z,11.40
2023-02-25T07:25:19.181Z,7.93
2023-02-25T07:27:46.368Z,15.23
2023-02-25T07:30:13.473Z,9.20
2023-02-25T07:32:41.241Z,7.67
2023-02-25T07:35:09.016Z,6.57
2023-02-25T07:37:35.916Z,6.73
2023-02-25T07:40:02.698Z,6.33
2023-02-25T07:42:29.594Z,8.50
2023-02-25T07:45:02.038Z,8.73
2023-02-25T07:47:29.327Z,9.73
2023-02-25T07:49:56.070Z,6.57
2023-02-25T07:52:23.068Z,7.60
2023-02-25T07:54:49.809Z,7.20
2023-02-25T07:57:16.706Z,8.83
2023-02-25T07:59:43.484Z,8.40
2023-02-25T08:02:11.312Z,7.23
2023-02-25T08:04:38.336Z,5.80
2023-02-25T08:07:05.207Z,5.63
2023-02-25T08:09:31.984Z,9.30
2023-02-25T08:11:58.942Z,6.10
2023-02-25T08:14:25.733Z,6.43
2023-02-25T08:16:55.510Z,6.90
2023-02-25T08:19:22.288Z,12.87
2023-02-25T08:21:49.146Z,9.03
2023-02-25T08:24:16.022Z,7.87
2023-02-25T08:26:42.809Z,9.67
2023-02-25T08:29:09.663Z,6.10
2023-02-25T08:31:36.603Z,5.63
2023-02-25T08:34:03.484Z,8.27
2023-02-25T08:36:31.457Z,8.57
2023-02-25T08:38:58.718Z,7.93
2023-02-25T08:41:26.803Z,5.20
2023-02-25T08:43:55.057Z,6.53
2023-02-25T08:46:22.882Z,7.20
2023-02-25T08:48:50.508Z,5.60
2023-02-25T08:51:17.803Z,6.03
2023-02-25T08:53:44.703Z,6.03
2023-02-25T08:56:13.457Z,5.70
2023-02-25T08:58:40.736Z,6.40
2023-02-25T09:01:14.947Z,10.33
2023-02-25T09:03:51.430Z,11.03
2023-02-25T09:06:19.582Z,6.90
2023-02-25T09:08:46.362Z,8.63
2023-02-25T09:11:13.334Z,5.10
2023-02-25T09:13:40.106Z,4.63
2023-02-25T09:16:07.368Z,5.03
2023-02-25T09:18:34.283Z,4.57
2023-02-25T09:21:01.088Z,5.43
2023-02-25T09:23:27.983Z,4.97
2023-02-25T09:25:54.826Z,4.13
2023-02-25T09:28:23.650Z,5.67
2023-02-25T09:30:51.518Z,4.17
2023-02-25T09:33:18.494Z,4.87
2023-02-25T09:35:45.445Z,5.03
2023-02-25T09:38:13.237Z,4.30
2023-02-25T09:40:41.791Z,4.27
2023-02-25T09:43:20.636Z,5.10
2023-02-25T09:45:51.452Z,7.70
2023-02-25T09:48:18.318Z,4.80
2023-02-25T09:50:52.138Z,4.20
2023-02-25T09:53:22.008Z,4.87
2023-02-25T09:55:50.928Z,4.77
2023-02-25T09:58:22.049Z,4.70
2023-02-25T10:00:55.582Z,4.63
2023-02-25T10:03:26.423Z,4.83
2023-02-25T10:06:03.149Z,3.30
2023-02-25T10:08:42.026Z,4.07
2023-02-25T10:11:32.120Z,4.17
2023-02-25T10:13:58.933Z,2.93
2023-02-25T10:16:31.538Z,3.70
2023-02-25T10:19:03.893Z,4.83
2023-02-25T10:21:39.812Z,3.00
2023-02-25T10:24:12.640Z,4.27
2023-02-25T10:26:41.648Z,4.27
2023-02-25T10:29:12.910Z,4.47
2023-02-25T10:31:44.239Z,5.30
2023-02-25T10:34:22.273Z,3.73
2023-02-25T10:36:54.086Z,3.10
2023-02-25T10:39:20.898Z,2.20
2023-02-25T10:41:49.492Z,3.30
2023-02-25T10:44:16.780Z,3.63
2023-02-25T10:47:04.085Z,3.23
2023-02-25T10:49:38.276Z,2.73
2023-02-25T10:52:10.491Z,3.30
2023-02-25T10:54:48.340Z,3.03
2023-02-25T10:57:23.295Z,4.73
2023-02-25T10:59:59.260Z,5.47
2023-02-25T11:02:28.519Z,2.97
2023-02-25T11:04:55.648Z,4.80
2023-02-25T11:07:42.201Z,5.13
2023-02-25T11:10:09.520Z,6.33
2023-02-25T11:12:57.332Z,8.27
2023-02-25T11:15:43.804Z,7.57
2023-02-25T11:18:18.109Z,3.93
2023-02-25T11:20:55.380Z,3.90
2023-02-25T11:23:34.490Z,3.50
2023-02-25T11:26:01.830Z,5.73
2023-02-25T11:28:34.153Z,3.80
2023-02-25T11:31:06.361Z,5.63
2023-02-25T11:33:38.864Z,3.30
2023-02-25T11:36:06.894Z,3.77
2023-02-25T11:38:38.188Z,5.20
2023-02-25T11:41:14.113Z,4.50
2023-02-25T11:43:42.513Z,3.70
2023-02-25T11:46:13.153Z,8.17
2023-02-25T11:48:47.405Z,4.90
2023-02-25T11:51:26.690Z,4.83
2023-02-25T11:53:59.485Z,8.37
2023-02-25T11:56:29.353Z,7.07
2023-02-25T11:59:15.210Z,7.47
2023-02-25T12:01:42.027Z,7.70
2023-02-25T12:04:14.592Z,7.87
2023-02-25T12:06:50.313Z,20.43
2023-02-25T12:09:44.345Z,8.63
2023-02-25T12:12:14.244Z,4.80
2023-02-25T12:14:43.760Z,11.80
2023-02-25T12:17:28.418Z,4.70
2023-02-25T12:19:58.121Z,7.40
2023-02-25T12:22:46.974Z,4.00
2023-02-25T12:25:21.013Z,11.20
2023-02-25T12:28:06.615Z,8.17
2023-02-25T12:30:33.481Z,8.53
2023-02-25T12:33:09.750Z,8.03
2023-02-25T12:35:36.551Z,5.30
2023-02-25T12:38:22.269Z,7.83
2023-02-25T12:41:08.042Z,5.37
2023-02-25T12:43:35.008Z,4.50
2023-02-25T12:46:04.739Z,5.20
2023-02-25T12:48:37.720Z,12.83
2023-02-25T12:51:10.420Z,6.77
2023-02-25T12:53:54.760Z,5.13
2023-02-25T12:56:24.420Z,6.43
2023-02-25T12:58:51.133Z,5.83
2023-02-25T13:01:36.210Z,7.47
2023-02-25T13:04:15.070Z,4.53
2023-02-25T13:07:00.109Z,13.73
2023-02-25T13:09:26.990Z,6.90
2023-02-25T13:12:13.732Z,6.17
2023-02-25T13:14:46.849Z,7.97
2023-02-25T13:17:19.591Z,8.07
2023-02-25T13:19:56.533Z,19.07
2023-02-25T13:22:38.447Z,7.87
2023-02-25T13:25:05.412Z,9.77
2023-02-25T13:28:00.926Z,4.20
2023-02-25T13:30:30.826Z,3.10
2023-02-25T13:32:57.704Z,3.90
2023-02-25T13:35:39.819Z,1.73
2023-02-25T13:38:18.958Z,2.60
2023-02-25T13:40:54.974Z,2.40
2023-02-25T13:43:36.809Z,5.00
2023-02-25T13:46:10.079Z,3.00
2023-02-25T13:48:43.781Z,2.60
2023-02-25T13:51:26.177Z,3.93
2023-02-25T13:53:59.705Z,3.80
2023-02-25T13:56:36.705Z,3.37
2023-02-25T13:59:03.565Z,4.73
2023-02-25T14:01:45.395Z,6.07
2023-02-25T14:04:12.241Z,5.63
2023-02-25T14:07:02.058Z,6.40
2023-02-25T14:09:34.701Z,4.37
2023-02-25T14:12:12.995Z,4.67
2023-02-25T14:14:40.201Z,6.70
2023-02-25T14:17:25.859Z,5.80
2023-02-25T14:20:06.698Z,7.50
2023-02-25T14:22:44.299Z,10.70
2023-02-25T14:25:17.280Z,26.87
2023-02-25T14:27:51.431Z,15.10
2023-02-25T14:30:18.324Z,29.07
2023-02-25T14:33:03.885Z,9.67
2023-02-25T14:35:30.650Z,7.17
2023-02-25T14:38:08.618Z,3.93
2023-02-25T14:40:56.692Z,4.77
2023-02-25T14:43:34.543Z,3.83
2023-02-25T14:46:20.108Z,3.33
2023-02-25T14:48:46.955Z,3.20
2023-02-25T14:51:13.703Z,3.07
2023-02-25T14:53:54.374Z,3.30
2023-02-25T14:56:29.531Z,3.07
2023-02-25T14:58:59.594Z,3.87
2023-02-25T15:01:39.198Z,2.93
2023-02-25T15:04:12.039Z,4.10
2023-02-25T15:06:53.654Z,4.43
2023-02-25T15:09:23.828Z,5.97
2023-02-25T15:11:53.491Z,5.33
2023-02-25T15:14:38.178Z,6.40
2023-02-25T15:17:13.917Z,9.13
2023-02-25T15:19:59.913Z,7.20
2023-02-25T15:22:28.162Z,7.00
2023-02-25T15:25:15.216Z,3.40
2023-02-25T15:27:44.837Z,4.27
2023-02-25T15:30:21.616Z,4.17
2023-02-25T15:33:00.680Z,3.83
2023-02-25T15:35:36.596Z,4.23
2023-02-25T15:38:07.492Z,3.43
2023-02-25T15:40:34.586Z,3.17
2023-02-25T15:43:10.608Z,8.07
2023-02-25T15:45:38.249Z,4.53
2023-02-25T15:48:08.103Z,4.90
2023-02-25T15:50:44.282Z,5.50
2023-02-25T15:53:29.870Z,5.23
2023-02-25T15:56:05.930Z,4.10
2023-02-25T15:58:32.774Z,4.30
2023-02-25T16:00:59.608Z,3.80
2023-02-25T16:03:26.584Z,4.00
2023-02-25T16:05:54.050Z,4.30
2023-02-25T16:08:23.818Z,6.33
2023-02-25T16:10:53.173Z,30.33
2023-02-25T16:13:26.755Z,31.47
2023-02-25T16:15:55.837Z,20.60
2023-02-25T16:18:25.738Z,39.97
2023-02-25T16:20:54.896Z,16.83
2023-02-25T16:23:21.775Z,12.80
2023-02-25T16:25:57.552Z,4.90
2023-02-25T16:28:30.620Z,7.37
2023-02-25T16:31:03.899Z,6.47
2023-02-25T16:33:36.364Z,14.93
2023-02-25T16:36:11.328Z,11.27
2023-02-25T16:38:55.968Z,15.30
2023-02-25T16:41:30.272Z,10.77
2023-02-25T16:44:03.350Z,11.20
2023-02-25T16:46:34.939Z,16.33
2023-02-25T16:49:03.007Z,6.83
2023-02-25T16:51:34.796Z,7.70
2023-02-25T16:54:07.779Z,6.07
2023-02-25T16:56:35.393Z,6.17
2023-02-25T16:59:14.243Z,6.37
2023-02-25T17:02:01.404Z,6.53
2023-02-25T17:04:28.193Z,9.20
2023-02-25T17:07:07.704Z,8.87
2023-02-25T17:09:35.410Z,8.13
2023-02-25T17:12:03.621Z,7.53
2023-02-25T17:14:31.253Z,8.87
2023-02-25T17:16:58.512Z,8.57
2023-02-25T17:19:25.688Z,6.50
2023-02-25T17:21:55.132Z,8.23
2023-02-25T17:24:24.727Z,8.43
2023-02-25T17:26:51.950Z,7.53
2023-02-25T17:29:18.968Z,6.23
2023-02-25T17:31:48.849Z,6.23
2023-02-25T17:34:17.853Z,7.03
2023-02-25T17:36:45.219Z,6.80
2023-02-25T17:39:13.561Z,5.27
2023-02-25T17:41:44.090Z,7.47
2023-02-25T17:44:11.650Z,6.23
2023-02-25T17:46:41.596Z,4.80
2023-02-25T17:49:17.729Z,6.97
2023-02-25T17:51:44.624Z,7.67
2023-02-25T17:54:16.761Z,6.47
2023-02-25T17:56:44.175Z,9.00
2023-02-25T17:59:13.925Z,21.57
2023-02-25T18:01:54.149Z,8.13
2023-02-25T18:04:22.282Z,8.70
2023-02-25T18:06:49.128Z,9.10
2023-02-25T18:09:31.870Z,11.07
2023-02-25T18:12:00.848Z,7.67
2023-02-25T18:14:33.961Z,12.37
2023-02-25T18:17:01.488Z,8.40
2023-02-25T18:19:39.052Z,6.67
2023-02-25T18:22:06.499Z,6.07
2023-02-25T18:24:34.974Z,6.97
2023-02-25T18:27:19.374Z,8.33
2023-02-25T18:29:46.181Z,8.10
2023-02-25T18:32:13.225Z,5.90
2023-02-25T18:34:40.264Z,4.20
2023-02-25T18:37:07.188Z,5.43
2023-02-25T18:39:33.966Z,5.63
2023-02-25T18:42:00.938Z,5.43
2023-02-25T18:44:27.793Z,5.67
2023-02-25T18:46:54.585Z,6.97
2023-02-25T18:49:21.448Z,8.37
2023-02-25T18:51:49.058Z,6.67
2023-02-25T18:54:17.577Z,5.30
2023-02-25T18:56:44.492Z,5.40
2023-02-25T18:59:11.339Z,6.37
2023-02-25T19:01:38.490Z,6.97
2023-02-25T19:04:06.038Z,4.30
2023-02-25T19:06:34.020Z,5.40
2023-02-25T19:09:01.104Z,6.57
2023-02-25T19:11:31.571Z,7.17
2023-02-25T19:13:58.455Z,6.03
2023-02-25T19:16:25.699Z,6.73
2023-02-25T19:18:52.916Z,5.00
2023-02-25T19:21:21.188Z,7.30
2023-02-25T19:23:51.806Z,3.90
2023-02-25T19:26:18.772Z,6.37
2023-02-25T19:28:45.587Z,4.50
2023-02-25T19:31:12.830Z,9.23
2023-02-25T19:33:39.769Z,7.13
2023-02-25T19:36:08.578Z,13.40
2023-02-25T19:38:35.840Z,15.83
2023-02-25T19:41:03.898Z,16.97
2023-02-25T19:43:31.822Z,15.70
2023-02-25T19:45:58.962Z,10.43
2023-02-25T19:48:25.820Z,5.53
2023-02-25T19:50:52.627Z,4.77
2023-02-25T19:53:19.514Z,4.40
2023-02-25T19:55:46.432Z,5.43
2023-02-25T19:58:13.394Z,3.83
2023-02-25T20:00:45.912Z,4.47
2023-02-25T20:03:13.778Z,6.43
2023-02-25T20:05:40.640Z,6.30
2023-02-25T20:08:08.161Z,4.83
2023-02-25T20:10:35.158Z,5.57
2023-02-25T20:13:01.948Z,8.50
2023-02-25T20:15:28.742Z,6.47
2023-02-25T20:17:57.721Z,7.50
2023-02-25T20:20:24.619Z,6.47
2023-02-25T20:22:51.559Z,6.73
2023-02-25T20:25:18.436Z,7.20
2023-02-25T20:27:45.298Z,5.10
2023-02-25T20:30:14.608Z,7.57
2023-02-25T20:32:41.963Z,6.83
2023-02-25T20:35:11.630Z,5.83
2023-02-25T20:37:39.413Z,6.87
2023-02-25T20:40:08.448Z,6.07
2023-02-25T20:42:35.382Z,7.37
2023-02-25T20:45:02.288Z,7.30
2023-02-25T20:47:31.159Z,5.70
2023-02-25T20:49:58.436Z,7.33
2023-02-25T20:52:27.049Z,7.50
2023-02-25T20:54:54.326Z,6.40
2023-02-25T20:57:22.264Z,6.90
2023-02-25T20:59:49.444Z,8.93
2023-02-25T21:02:16.615Z,7.27
2023-02-25T21:04:44.405Z,6.23
2023-02-25T21:07:11.237Z,6.37
2023-02-25T21:09:38.508Z,8.23
2023-02-25T21:12:05.937Z,7.33
2023-02-25T21:14:32.837Z,8.23
2023-02-25T21:16:59.780Z,7.00
2023-02-25T21:19:28.277Z,10.90
2023-02-25T21:21:55.523Z,6.80
2023-02-25T21:24:22.553Z,7.07
2023-02-25T21:26:49.727Z,9.57
2023-02-25T21:29:16.616Z,10.17
2023-02-25T21:31:43.737Z,9.17
2023-02-25T21:34:13.059Z,8.97
2023-02-25T21:36:40.718Z,8.90
2023-02-25T21:39:09.425Z,10.27
2023-02-25T21:41:37.228Z,9.20
2023-02-25T21:44:04.122Z,9.63
2023-02-25T21:46:30.924Z,10.30
2023-02-25T21:48:57.825Z,11.27
2023-02-25T21:51:25.467Z,11.03
2023-02-25T21:53:56.147Z,12.00
2023-02-25T21:56:23.823Z,8.83
2023-02-25T21:58:58.051Z,14.63
2023-02-25T22:01:26.394Z,12.03
2023-02-25T22:03:53.482Z,10.83
2023-02-25T22:06:24.110Z,9.90
2023-02-25T22:08:52.060Z,10.70
2023-02-25T22:11:20.100Z,11.23
2023-02-25T22:13:47.146Z,11.37
2023-02-25T22:16:15.113Z,10.43
2023-02-25T22:18:41.887Z,9.37
2023-02-25T22:21:12.784Z,9.10
2023-02-25T22:23:40.348Z,8.40
2023-02-25T22:26:08.370Z,9.20
2023-02-25T22:28:35.769Z,9.80
2023-02-25T22:31:02.891Z,11.70
2023-02-25T22:33:31.021Z,9.87
2023-02-25T22:35:58.814Z,9.37
2023-02-25T22:38:27.470Z,10.10
2023-02-25T22:40:54.677Z,8.23
2023-02-25T22:43:21.622Z,10.80
2023-02-25T22:45:48.463Z,10.93
2023-02-25T22:48:15.331Z,9.63
2023-02-25T22:50:49.176Z,11.93
2023-02-25T22:53:16.524Z,9.43
2023-02-25T22:55:43.669Z,11.87
2023-02-25T22:58:10.783Z,11.03
2023-02-25T23:00:46.343Z,8.50
2023-02-25T23:03:13.204Z,12.33
2023-02-25T23:05:40.476Z,10.97
2023-02-25T23:08:07.241Z,10.00
2023-02-25T23:10:36.180Z,9.33
2023-02-25T23:13:08.112Z,11.60
2023-02-25T23:15:37.073Z,10.47
2023-02-25T23:18:04.157Z,11.07
2023-02-25T23:20:32.216Z,12.20
2023-02-25T23:23:04.565Z,12.03
2023-02-25T23:25:32.307Z,9.60
2023-02-25T23:27:59.362Z,9.70
2023-02-25T23:30:26.840Z,11.13
2023-02-25T23:32:54.021Z,10.87
2023-02-25T23:35:20.860Z,12.30
2023-02-25T23:37:48.221Z,10.10
2023-02-25T23:40:15.434Z,9.83
2023-02-25T23:42:43.300Z,12.13
2023-02-25T23:45:11.938Z,7.63
2023-02-25T23:47:41.355Z,9.57
2023-02-25T23:50:12.708Z,8.00
2023-02-25T23:52:39.565Z,10.30
2023-02-25T23:55:06.746Z,8.93
2023-02-25T23:57:33.978Z,11.93
